首页
METAR-TAF:

METAR-TAF

机场 :

Goodland Municipal Airport (Renner Field)

Goodland, 堪薩斯州, 美国

纬度: 39-22-03N, 经度: 101-41-35W, 海拔: 1114米

当前天气观测

该预报发布于19分钟前的01:53 UTC
风速11节,风向西转西南
温度 7°C
湿度 45%
气压 1015 hPa
能見度: 16.1公里
天空无云

METAR: KGLD 180153Z AUTO 25011KT 10SM CLR 07/M04 A2997 RMK AO2 SLP158 T00721039

时间: 19:12 (02:12 UTC)

预报

该预报发布于2小时和52分钟前的23:20 UTC
预报有效从18日的 00点(UTC)到 18日的 24点(UTC)
风速8节,风向西转西北
能見度: 10公里
天空无云
从 18日的 0400点(UTC)
风速10节,风向西
能見度: 10公里
多云层高于10000英尺
从 18日的 1200点(UTC)
风速11节,风向西转西北
能見度: 10公里
多云层高于25000英尺
从 18日的 1600点(UTC)
风速17节,风向西北,有时为27节阵风
能見度: 10公里
天空无云

TAF: KGLD 172320Z 1800/1824 30008KT P6SM SKC FM180400 26010KT P6SM BKN100 FM181200 30011KT P6SM BKN250 WS020/34035KT FM181600 32017G27KT P6SM SKC

超过4000个机场的气象观测和天气预报(METAR&TAF报告)。

可查询的气象台以黄色和红色小点在地图上表示。

将鼠标移到小点上方,可查看气象台名称。

然后点击查看天气观测和预报。

如需切换地图:点击带黑十字的绿色按钮放大地图;点击带横线的绿色按钮缩小地图;或者点击绿色箭头查看邻近地区的地图。


METAR-TAF: